createdAt,value
2018-12-14T00:02:01.251Z,35.75
2018-12-14T00:04:29.443Z,31.10
2018-12-14T00:06:57.675Z,29.57
2018-12-14T00:09:25.917Z,33.80
2018-12-14T00:11:54.114Z,38.83
2018-12-14T00:14:22.407Z,32.90
2018-12-14T00:16:50.657Z,35.50
2018-12-14T00:19:18.941Z,37.25
2018-12-14T00:21:47.194Z,34.98
2018-12-14T00:24:15.431Z,41.88
2018-12-14T00:26:43.776Z,38.90
2018-12-14T00:29:11.962Z,36.13
2018-12-14T00:31:40.249Z,31.60
2018-12-14T00:34:08.465Z,34.10
2018-12-14T00:36:36.780Z,36.90
2018-12-14T00:39:06.874Z,31.20
2018-12-14T00:41:35.061Z,32.63
2018-12-14T00:44:03.322Z,35.10
2018-12-14T00:46:31.608Z,37.90
2018-12-14T00:48:59.912Z,35.35
2018-12-14T00:51:28.134Z,35.95
2018-12-14T00:53:56.310Z,37.05
2018-12-14T00:56:24.549Z,33.73
2018-12-14T00:58:52.775Z,32.83
2018-12-14T01:01:21.015Z,33.15
2018-12-14T01:03:49.239Z,31.25
2018-12-14T01:06:17.777Z,36.98
2018-12-14T01:08:46.002Z,39.78
2018-12-14T01:11:14.150Z,37.30
2018-12-14T01:13:42.396Z,32.17
2018-12-14T01:16:10.762Z,34.05
2018-12-14T01:18:39.033Z,37.60
2018-12-14T01:21:07.322Z,38.28
2018-12-14T01:23:36.575Z,36.00
2018-12-14T01:26:04.789Z,40.98
2018-12-14T01:28:32.898Z,41.65
2018-12-14T01:31:01.103Z,35.15
2018-12-14T01:33:29.287Z,35.43
2018-12-14T01:35:57.623Z,36.98
2018-12-14T01:38:25.863Z,35.58
2018-12-14T01:40:54.085Z,38.83
2018-12-14T01:43:22.360Z,38.92
2018-12-14T01:45:50.634Z,35.08
2018-12-14T01:48:18.842Z,39.25
2018-12-14T01:50:47.135Z,37.60
2018-12-14T01:53:15.393Z,37.17
2018-12-14T01:55:43.684Z,33.13
2018-12-14T01:58:11.992Z,38.45
2018-12-14T02:00:40.188Z,36.83
2018-12-14T02:03:08.410Z,41.50
2018-12-14T02:05:36.645Z,36.85
2018-12-14T02:08:04.850Z,38.58
2018-12-14T02:10:33.143Z,39.92
2018-12-14T02:13:01.311Z,41.80
2018-12-14T02:15:29.541Z,37.73
2018-12-14T02:17:57.796Z,41.00
2018-12-14T02:20:26.015Z,38.28
2018-12-14T02:22:54.230Z,35.23
2018-12-14T02:25:22.436Z,43.25
2018-12-14T02:27:50.720Z,40.35
2018-12-14T02:30:30.411Z,39.70
2018-12-14T02:32:58.744Z,35.52
2018-12-14T02:35:26.927Z,43.50
2018-12-14T02:37:55.356Z,43.42
2018-12-14T02:40:23.672Z,36.55
2018-12-14T02:42:51.883Z,42.90
2018-12-14T02:45:20.182Z,42.03
2018-12-14T02:47:48.388Z,43.63
2018-12-14T02:50:16.606Z,43.35
2018-12-14T02:52:44.853Z,44.73
2018-12-14T02:55:13.061Z,40.52
2018-12-14T02:57:41.321Z,46.68
2018-12-14T03:00:09.640Z,40.33
2018-12-14T03:02:37.925Z,43.78
2018-12-14T03:05:06.172Z,44.60
2018-12-14T03:07:34.394Z,39.83
2018-12-14T03:10:02.743Z,44.83
2018-12-14T03:12:31.028Z,40.63
2018-12-14T03:14:59.289Z,46.65
2018-12-14T03:17:27.953Z,48.33
2018-12-14T03:19:56.613Z,52.45
2018-12-14T03:22:25.360Z,50.48
2018-12-14T03:24:53.769Z,47.05
2018-12-14T03:27:22.064Z,55.15
2018-12-14T03:29:50.395Z,49.33
2018-12-14T03:32:18.782Z,45.83
2018-12-14T03:34:47.333Z,46.30
2018-12-14T03:37:15.556Z,50.28
2018-12-14T03:39:43.777Z,47.33
2018-12-14T03:42:12.107Z,50.17
2018-12-14T03:44:40.649Z,48.68
2018-12-14T03:47:09.024Z,47.78
2018-12-14T03:49:37.239Z,53.75
2018-12-14T03:52:05.718Z,44.42
2018-12-14T03:54:34.081Z,42.03
2018-12-14T03:57:02.424Z,45.08
2018-12-14T03:59:30.874Z,46.28
2018-12-14T04:01:59.165Z,53.90
2018-12-14T04:04:27.397Z,45.65
2018-12-14T04:06:55.783Z,47.90
2018-12-14T04:09:24.019Z,49.33
2018-12-14T04:11:52.228Z,47.98
2018-12-14T04:14:20.484Z,45.73
2018-12-14T04:16:48.756Z,53.10
2018-12-14T04:19:17.076Z,52.00
2018-12-14T04:21:45.303Z,46.92
2018-12-14T04:24:13.676Z,50.08
2018-12-14T04:26:42.031Z,46.90
2018-12-14T04:29:10.299Z,48.00
2018-12-14T04:31:38.737Z,49.30
2018-12-14T04:34:07.088Z,46.58
2018-12-14T04:36:35.591Z,48.25
2018-12-14T04:39:05.468Z,41.85
2018-12-14T04:41:33.627Z,51.83
2018-12-14T04:44:01.881Z,46.40
2018-12-14T04:46:30.136Z,48.95
2018-12-14T04:48:58.266Z,47.95
2018-12-14T04:51:26.522Z,48.90
2018-12-14T04:53:56.283Z,54.95
2018-12-14T04:56:24.584Z,47.17
2018-12-14T04:58:52.965Z,50.65
2018-12-14T05:01:21.392Z,52.65
2018-12-14T05:03:49.813Z,51.42
2018-12-14T05:06:18.103Z,46.18
2018-12-14T05:08:46.478Z,43.90
2018-12-14T05:11:15.077Z,51.15
2018-12-14T05:13:43.347Z,47.13
2018-12-14T05:16:11.667Z,51.35
2018-12-14T05:18:39.871Z,49.98
2018-12-14T05:21:08.342Z,47.17
2018-12-14T05:23:36.980Z,46.68
2018-12-14T05:26:05.292Z,45.88
2018-12-14T05:28:33.599Z,49.85
2018-12-14T05:31:02.040Z,43.52
2018-12-14T05:33:30.275Z,49.10
2018-12-14T05:35:58.490Z,49.05
2018-12-14T05:38:26.882Z,49.03
2018-12-14T05:40:55.195Z,50.95
2018-12-14T05:43:23.518Z,52.20
2018-12-14T05:45:51.768Z,46.63
2018-12-14T05:48:20.081Z,50.40
2018-12-14T05:50:48.723Z,48.70
2018-12-14T05:53:16.958Z,49.10
2018-12-14T05:55:45.257Z,44.45
2018-12-14T05:58:13.544Z,47.70
2018-12-14T06:00:41.843Z,43.33
2018-12-14T06:03:10.090Z,50.00
2018-12-14T06:05:38.344Z,46.45
2018-12-14T06:08:06.756Z,46.68
2018-12-14T06:10:35.246Z,45.40
2018-12-14T06:13:08.877Z,48.38
2018-12-14T06:15:33.830Z,48.10
2018-12-14T06:18:03.515Z,49.00
2018-12-14T06:20:31.876Z,44.65
2018-12-14T06:23:00.163Z,52.17
2018-12-14T06:25:28.397Z,49.58
2018-12-14T06:27:56.705Z,49.93
2018-12-14T06:30:24.923Z,48.48
2018-12-14T06:32:53.311Z,54.55
2018-12-14T06:35:21.538Z,47.00
2018-12-14T06:37:49.720Z,46.88
2018-12-14T06:40:18.028Z,47.78
2018-12-14T06:42:46.333Z,40.88
2018-12-14T06:45:15.142Z,51.85
2018-12-14T06:47:43.506Z,44.50
2018-12-14T06:50:11.820Z,54.67
2018-12-14T06:52:40.076Z,50.25
2018-12-14T06:55:08.359Z,46.95
2018-12-14T06:57:36.620Z,45.28
2018-12-14T07:00:06.916Z,48.52
2018-12-14T07:02:35.386Z,45.78
2018-12-14T07:05:03.756Z,44.55
2018-12-14T07:07:32.017Z,44.67
2018-12-14T07:10:00.237Z,43.63
2018-12-14T07:12:28.580Z,44.55
2018-12-14T07:14:56.894Z,40.23
2018-12-14T07:17:25.245Z,41.48
2018-12-14T07:19:53.571Z,48.40
2018-12-14T07:22:21.880Z,39.73
2018-12-14T07:24:50.435Z,39.95
2018-12-14T07:27:18.993Z,46.63
2018-12-14T07:29:47.197Z,41.23
2018-12-14T07:32:15.525Z,46.68
2018-12-14T07:34:43.731Z,38.38
2018-12-14T07:37:12.168Z,39.95
2018-12-14T07:39:40.465Z,39.08
2018-12-14T07:42:08.772Z,38.85
2018-12-14T07:44:37.320Z,44.13
2018-12-14T07:47:11.473Z,41.25
2018-12-14T07:49:36.263Z,38.65
2018-12-14T07:52:04.615Z,44.42
2018-12-14T07:54:32.974Z,38.10
2018-12-14T07:57:01.150Z,39.38
2018-12-14T07:59:29.361Z,45.15
2018-12-14T08:01:57.649Z,46.65
2018-12-14T08:04:26.033Z,41.70
2018-12-14T08:06:55.358Z,41.73
2018-12-14T08:09:25.071Z,34.75
2018-12-14T08:11:55.864Z,38.48
2018-12-14T08:14:25.009Z,37.35
2018-12-14T08:16:53.335Z,37.80
2018-12-14T08:19:21.700Z,35.90
2018-12-14T08:21:50.024Z,38.40
2018-12-14T08:24:18.380Z,39.45
2018-12-14T08:26:46.952Z,37.33
2018-12-14T08:29:17.132Z,39.10
2018-12-14T08:31:46.896Z,36.68
2018-12-14T08:34:15.149Z,40.78
2018-12-14T08:36:43.396Z,41.35
2018-12-14T08:39:11.673Z,43.25
2018-12-14T08:41:39.887Z,38.50
2018-12-14T08:44:08.209Z,47.50
2018-12-14T08:46:36.435Z,45.65
2018-12-14T08:49:04.741Z,42.88
2018-12-14T08:51:32.969Z,44.15
2018-12-14T08:54:01.182Z,35.55
2018-12-14T08:56:29.464Z,42.95
2018-12-14T08:58:57.766Z,42.13
2018-12-14T09:01:26.020Z,39.23
2018-12-14T09:03:54.305Z,35.78
2018-12-14T09:06:22.482Z,35.15
2018-12-14T09:08:50.700Z,41.40
2018-12-14T09:11:19.053Z,41.15
2018-12-14T09:13:47.991Z,35.38
2018-12-14T09:16:16.475Z,37.28
2018-12-14T09:18:44.752Z,37.48
2018-12-14T09:21:13.003Z,32.65
2018-12-14T09:23:41.282Z,38.45
2018-12-14T09:26:09.616Z,35.20
2018-12-14T09:29:09.367Z,38.02
2018-12-14T09:31:38.052Z,35.75
2018-12-14T09:34:06.257Z,38.28
2018-12-14T09:36:34.530Z,43.83
2018-12-14T09:39:04.344Z,37.65
2018-12-14T09:41:32.615Z,38.95
2018-12-14T09:44:00.829Z,40.40
2018-12-14T09:46:29.164Z,38.50
2018-12-14T09:48:57.475Z,37.17
2018-12-14T09:51:25.723Z,41.08
2018-12-14T09:53:54.029Z,42.03
2018-12-14T09:56:22.360Z,42.25
2018-12-14T09:58:50.582Z,39.05
2018-12-14T10:01:18.938Z,39.65
2018-12-14T10:03:47.630Z,38.88
2018-12-14T10:06:16.069Z,42.45
2018-12-14T10:08:44.446Z,39.83
2018-12-14T10:11:13.039Z,35.25
2018-12-14T10:13:41.617Z,36.83
2018-12-14T10:16:16.625Z,38.23
2018-12-14T10:18:45.339Z,38.28
2018-12-14T10:21:13.620Z,38.02
2018-12-14T10:23:42.064Z,40.50
2018-12-14T10:26:10.255Z,38.60
2018-12-14T10:28:38.519Z,32.05
2018-12-14T10:31:06.727Z,39.70
2018-12-14T10:33:35.351Z,38.05
2018-12-14T10:36:03.599Z,37.90
2018-12-14T10:38:31.898Z,37.58
2018-12-14T10:41:00.239Z,35.65
2018-12-14T10:43:28.520Z,37.60
2018-12-14T10:45:56.825Z,37.17
2018-12-14T10:48:25.085Z,32.93
2018-12-14T10:50:53.347Z,42.70
2018-12-14T10:53:21.644Z,40.52
2018-12-14T10:55:50.402Z,33.92
2018-12-14T10:58:18.666Z,37.98
2018-12-14T11:00:52.549Z,34.78
2018-12-14T11:03:20.834Z,39.88
2018-12-14T11:05:49.186Z,43.05
2018-12-14T11:08:17.356Z,39.00
2018-12-14T11:10:45.663Z,34.92
2018-12-14T11:13:14.081Z,35.15
2018-12-14T11:15:42.328Z,30.97
2018-12-14T11:18:10.609Z,37.20
2018-12-14T11:20:38.867Z,34.18
2018-12-14T11:23:07.332Z,41.30
2018-12-14T11:25:35.551Z,38.28
2018-12-14T11:28:04.045Z,34.63
2018-12-14T11:30:32.484Z,36.03
2018-12-14T11:33:00.744Z,39.38
2018-12-14T11:35:29.136Z,37.23
2018-12-14T11:37:57.329Z,39.50
2018-12-14T11:40:25.708Z,35.30
2018-12-14T11:43:57.419Z,31.42
2018-12-14T11:46:25.734Z,37.25
2018-12-14T11:48:54.106Z,40.12
2018-12-14T11:51:24.918Z,38.95
2018-12-14T11:53:53.233Z,37.65
2018-12-14T11:56:21.622Z,38.10
2018-12-14T11:58:50.016Z,33.95
2018-12-14T12:01:18.579Z,37.38
2018-12-14T12:03:47.089Z,43.20
2018-12-14T12:06:15.439Z,33.53
2018-12-14T12:08:43.793Z,37.05
2018-12-14T12:11:12.276Z,38.92
2018-12-14T12:13:40.689Z,31.42
2018-12-14T12:16:08.948Z,39.92
2018-12-14T12:18:37.211Z,35.95
2018-12-14T12:21:05.337Z,34.80
2018-12-14T12:23:33.586Z,36.10
2018-12-14T12:26:01.823Z,34.63
2018-12-14T12:28:29.975Z,37.08
2018-12-14T12:30:58.380Z,35.83
2018-12-14T12:33:26.551Z,37.40
2018-12-14T12:35:54.687Z,33.85
2018-12-14T12:38:22.950Z,36.75
2018-12-14T12:40:51.281Z,32.17
2018-12-14T12:43:19.597Z,40.95
2018-12-14T12:45:47.976Z,35.23
2018-12-14T12:48:16.345Z,34.33
2018-12-14T12:50:44.520Z,33.63
2018-12-14T12:53:14.707Z,34.60
2018-12-14T12:55:43.021Z,34.73
2018-12-14T12:58:11.235Z,41.02
2018-12-14T13:00:39.498Z,34.80
2018-12-14T13:03:07.754Z,35.52
2018-12-14T13:05:36.080Z,36.55
2018-12-14T13:08:04.438Z,38.35
2018-12-14T13:10:34.252Z,38.15
2018-12-14T13:13:02.398Z,34.55
2018-12-14T13:15:30.709Z,36.50
2018-12-14T13:17:59.293Z,32.80
2018-12-14T13:20:27.465Z,39.00
2018-12-14T13:22:55.903Z,33.13
2018-12-14T13:25:24.890Z,37.23
2018-12-14T13:27:53.413Z,36.63
2018-12-14T13:30:21.649Z,35.52
2018-12-14T13:32:49.945Z,36.53
2018-12-14T13:38:01.086Z,36.98
2018-12-14T13:40:29.434Z,34.50
2018-12-14T13:42:57.640Z,36.48
2018-12-14T13:45:25.971Z,35.78
2018-12-14T13:47:58.042Z,36.95
2018-12-14T13:50:26.666Z,39.20
2018-12-14T13:52:55.317Z,34.53
2018-12-14T13:55:23.651Z,37.93
2018-12-14T13:57:51.934Z,37.08
2018-12-14T14:00:20.183Z,36.88
2018-12-14T14:02:48.636Z,44.63
2018-12-14T14:05:16.907Z,51.15
2018-12-14T14:07:45.210Z,47.40
2018-12-14T14:10:14.391Z,48.92
2018-12-14T14:12:42.736Z,47.35
2018-12-14T14:15:11.243Z,53.20
2018-12-14T14:17:39.482Z,49.30
2018-12-14T14:20:14.907Z,56.33
2018-12-14T14:22:44.514Z,51.42
2018-12-14T14:25:17.455Z,49.65
2018-12-14T14:27:43.240Z,51.15
2018-12-14T14:30:14.624Z,48.70
2018-12-14T14:32:43.355Z,48.95
2018-12-14T14:35:11.842Z,47.27
2018-12-14T14:37:40.159Z,53.25
2018-12-14T14:40:08.500Z,50.20
2018-12-14T14:42:36.721Z,46.75
2018-12-14T14:45:05.683Z,42.85
2018-12-14T14:47:34.158Z,44.35
2018-12-14T14:50:02.451Z,51.30
2018-12-14T14:52:30.717Z,49.93
2018-12-14T14:54:59.146Z,51.90
2018-12-14T14:57:27.626Z,50.15
2018-12-14T14:59:55.871Z,49.00
2018-12-14T15:02:24.230Z,55.65
2018-12-14T15:04:52.491Z,48.58
2018-12-14T15:09:55.604Z,53.10
2018-12-14T15:12:23.939Z,53.38
2018-12-14T15:14:52.469Z,52.43
2018-12-14T15:17:20.756Z,52.93
2018-12-14T15:19:49.173Z,51.50
2018-12-14T15:22:17.483Z,56.08
2018-12-14T15:24:45.864Z,51.60
2018-12-14T15:27:14.406Z,54.48
2018-12-14T15:29:42.690Z,54.38
2018-12-14T15:32:11.120Z,51.45
2018-12-14T15:34:39.431Z,57.38
2018-12-14T15:37:07.717Z,46.80
2018-12-14T15:39:35.947Z,54.25
2018-12-14T15:42:04.274Z,58.25
2018-12-14T15:44:32.576Z,59.88
2018-12-14T15:47:00.811Z,60.38
2018-12-14T15:49:29.268Z,61.42
2018-12-14T15:51:57.510Z,58.73
2018-12-14T15:54:25.799Z,54.18
2018-12-14T15:56:54.094Z,51.00
2018-12-14T15:59:22.390Z,54.03
2018-12-14T16:01:50.768Z,50.48
2018-12-14T16:04:19.060Z,51.98
2018-12-14T16:06:47.244Z,48.75
2018-12-14T16:09:15.449Z,49.77
2018-12-14T16:11:43.924Z,50.25
2018-12-14T16:14:12.335Z,49.77
2018-12-14T16:16:40.652Z,52.53
2018-12-14T16:19:08.947Z,53.50
2018-12-14T16:21:37.317Z,52.17
2018-12-14T16:24:05.757Z,59.50
2018-12-14T16:26:33.995Z,52.60
2018-12-14T16:29:02.198Z,50.10
2018-12-14T16:31:30.473Z,53.50
2018-12-14T16:33:58.787Z,45.52
2018-12-14T16:36:27.089Z,61.28
2018-12-14T16:38:55.361Z,51.60
2018-12-14T16:41:23.791Z,53.28
2018-12-14T16:43:51.995Z,55.25
2018-12-14T16:46:20.263Z,51.77
2018-12-14T16:48:48.476Z,60.58
2018-12-14T16:51:16.708Z,59.35
2018-12-14T16:53:50.315Z,59.15
2018-12-14T16:56:18.616Z,50.00
2018-12-14T16:58:46.874Z,53.73
2018-12-14T17:01:15.193Z,56.88
2018-12-14T17:03:43.548Z,56.50
2018-12-14T17:06:11.883Z,54.98
2018-12-14T17:08:40.153Z,56.42
2018-12-14T17:11:08.480Z,50.48
2018-12-14T17:13:36.751Z,54.35
2018-12-14T17:16:05.054Z,50.98
2018-12-14T17:18:33.251Z,49.13
2018-12-14T17:21:05.087Z,51.13
2018-12-14T17:23:34.286Z,50.48
2018-12-14T17:26:04.901Z,52.58
2018-12-14T17:28:33.615Z,50.50
2018-12-14T17:31:03.109Z,55.35
2018-12-14T17:33:36.109Z,51.40
2018-12-14T17:36:01.663Z,52.45
2018-12-14T17:38:40.461Z,49.38
2018-12-14T17:41:08.756Z,49.00
2018-12-14T17:43:37.070Z,46.30
2018-12-14T17:46:05.253Z,46.80
2018-12-14T17:48:33.732Z,47.20
2018-12-14T17:51:02.214Z,46.05
2018-12-14T17:53:30.552Z,51.23
2018-12-14T17:55:58.766Z,47.83
2018-12-14T17:58:27.046Z,44.63
2018-12-14T18:00:58.366Z,42.65
2018-12-14T18:03:25.643Z,45.52
2018-12-14T18:05:54.021Z,43.70
2018-12-14T18:08:22.626Z,43.35
2018-12-14T18:10:50.908Z,45.90
2018-12-14T18:13:19.164Z,42.25
2018-12-14T18:15:47.580Z,42.08
2018-12-14T18:18:18.265Z,43.60
2018-12-14T18:20:47.048Z,41.90
2018-12-14T18:23:15.217Z,41.77
2018-12-14T18:25:44.460Z,38.00
2018-12-14T18:28:12.776Z,41.20
2018-12-14T18:30:41.039Z,41.55
2018-12-14T18:33:09.255Z,40.23
2018-12-14T18:35:37.491Z,40.35
2018-12-14T18:38:06.725Z,39.27
2018-12-14T18:40:35.116Z,39.80
2018-12-14T18:43:03.349Z,43.33
2018-12-14T18:45:31.616Z,41.98
2018-12-14T18:47:59.915Z,40.67
2018-12-14T18:50:28.204Z,41.88
2018-12-14T18:52:56.462Z,42.70
2018-12-14T18:55:24.729Z,40.20
2018-12-14T18:57:52.951Z,36.95
2018-12-14T19:00:21.226Z,35.33
2018-12-14T19:02:49.479Z,36.98
2018-12-14T19:05:17.780Z,40.33
2018-12-14T19:07:45.995Z,45.05
2018-12-14T19:10:14.245Z,37.25
2018-12-14T19:12:42.528Z,44.30
2018-12-14T19:15:10.800Z,37.95
2018-12-14T19:17:39.075Z,41.75
2018-12-14T19:20:07.366Z,41.02
2018-12-14T19:22:36.252Z,35.85
2018-12-14T19:25:05.356Z,37.78
2018-12-14T19:27:33.623Z,33.83
2018-12-14T19:30:02.028Z,38.08
2018-12-14T19:32:30.789Z,37.38
2018-12-14T19:34:59.141Z,42.08
2018-12-14T19:37:27.428Z,34.27
2018-12-14T19:39:55.646Z,37.80
2018-12-14T19:42:24.106Z,38.58
2018-12-14T19:44:52.472Z,38.25
2018-12-14T19:47:21.042Z,39.78
2018-12-14T19:49:49.463Z,36.15
2018-12-14T19:52:17.783Z,37.70
2018-12-14T19:54:46.063Z,41.75
2018-12-14T19:57:14.242Z,40.33
2018-12-14T19:59:42.620Z,39.42
2018-12-14T20:02:11.022Z,37.13
2018-12-14T20:04:39.327Z,36.38
2018-12-14T20:07:07.664Z,38.30
2018-12-14T20:09:35.867Z,40.17
2018-12-14T20:12:04.203Z,34.40
2018-12-14T20:14:32.500Z,33.88
2018-12-14T20:17:00.766Z,35.17
2018-12-14T20:19:29.212Z,33.48
2018-12-14T20:21:57.708Z,33.00
2018-12-14T20:24:26.228Z,35.17
2018-12-14T20:26:54.678Z,32.65
2018-12-14T20:29:22.975Z,39.33
2018-12-14T20:31:51.257Z,30.85
2018-12-14T20:34:19.469Z,35.03
2018-12-14T20:36:47.796Z,33.78
2018-12-14T20:39:16.154Z,36.08
2018-12-14T20:41:44.510Z,33.53
2018-12-14T20:44:12.747Z,33.92
2018-12-14T20:46:40.924Z,35.88
2018-12-14T20:49:09.237Z,37.65
2018-12-14T20:51:37.536Z,35.78
2018-12-14T20:54:05.826Z,34.92
2018-12-14T20:56:34.037Z,32.60
2018-12-14T20:59:02.324Z,31.87
2018-12-14T21:01:30.618Z,35.40
2018-12-14T21:03:58.848Z,34.90
2018-12-14T21:06:27.134Z,30.72
2018-12-14T21:08:55.335Z,31.48
2018-12-14T21:11:23.624Z,29.20
2018-12-14T21:13:51.851Z,32.40
2018-12-14T21:16:25.715Z,30.95
2018-12-14T21:18:50.489Z,28.62
2018-12-14T21:21:18.832Z,31.25
2018-12-14T21:23:47.097Z,29.67
2018-12-14T21:26:15.218Z,26.30
2018-12-14T21:28:43.475Z,25.20
2018-12-14T21:31:11.710Z,27.40
2018-12-14T21:33:39.964Z,29.30
2018-12-14T21:36:08.267Z,23.83
2018-12-14T21:38:36.537Z,32.28
2018-12-14T21:41:04.887Z,26.40
2018-12-14T21:43:33.088Z,22.30
2018-12-14T21:46:01.413Z,23.57
2018-12-14T21:48:29.685Z,26.23
2018-12-14T21:50:57.948Z,23.15
2018-12-14T21:53:26.228Z,22.50
2018-12-14T21:55:54.410Z,23.85
2018-12-14T21:58:22.716Z,28.40
2018-12-14T22:00:51.099Z,26.23
2018-12-14T22:03:19.372Z,23.25
2018-12-14T22:05:47.585Z,25.70
2018-12-14T22:08:15.807Z,27.73
2018-12-14T22:10:44.056Z,29.15
2018-12-14T22:13:12.377Z,28.77
2018-12-14T22:18:15.653Z,30.23
2018-12-14T22:20:43.972Z,31.35
2018-12-14T22:23:12.149Z,23.40
2018-12-14T22:25:40.496Z,27.00
2018-12-14T22:28:08.713Z,29.18
2018-12-14T22:30:36.973Z,30.37
2018-12-14T22:33:05.168Z,29.40
2018-12-14T22:35:33.452Z,33.70
2018-12-14T22:38:01.647Z,28.95
2018-12-14T22:40:30.036Z,30.12
2018-12-14T22:42:58.272Z,32.50
2018-12-14T22:45:26.543Z,37.50
2018-12-14T22:47:54.926Z,31.57
2018-12-14T22:50:23.193Z,32.78
2018-12-14T22:52:51.443Z,36.60
2018-12-14T22:55:19.626Z,34.55
2018-12-14T22:57:47.960Z,29.48
2018-12-14T23:00:19.818Z,33.42
2018-12-14T23:02:48.395Z,36.88
2018-12-14T23:05:16.765Z,34.25
2018-12-14T23:07:45.189Z,34.88
2018-12-14T23:10:13.434Z,31.90
2018-12-14T23:12:41.741Z,37.83
2018-12-14T23:15:09.957Z,34.78
2018-12-14T23:17:38.192Z,37.65
2018-12-14T23:20:06.665Z,36.75
2018-12-14T23:22:34.929Z,36.65
2018-12-14T23:25:03.195Z,39.45
2018-12-14T23:27:31.476Z,35.17
2018-12-14T23:29:59.774Z,40.88
2018-12-14T23:32:28.016Z,32.90
2018-12-14T23:34:56.266Z,39.30
2018-12-14T23:37:24.457Z,36.15
2018-12-14T23:39:52.732Z,34.25
2018-12-14T23:42:21.053Z,34.23
2018-12-14T23:44:49.344Z,32.73
2018-12-14T23:47:17.582Z,32.25
2018-12-14T23:49:45.875Z,29.85
2018-12-14T23:52:14.127Z,36.98
2018-12-14T23:54:42.493Z,31.62
2018-12-14T23:57:12.292Z,31.73
2018-12-14T23:59:40.803Z,34.83
